Time;durP1;ratioP1;P1;durP2;ratioP2;P2;SDS_P1;SDS_P2;PMS_P1;PMS_P2;Temp;Humidity;BMP_temperature;BMP_pressure;BME280_temperature;BME280_humidity;BME280_pressure;Samples;Min_cycle;Max_cycle;Signal;HPM_P1;HPM_P2
2023/12/17 07:01:35;;;;;;;2.00;1.40;;;9.00;99.90;11.00;103375.00;;;;5938676;22;4193631;-72
2023/12/17 07:04:30;;;;;;;5.77;3.70;;;9.00;99.90;10.80;103380.00;;;;6100427;23;20469;-72
2023/12/17 07:07:21;;;;;;;1.43;1.33;;;8.90;99.90;11.10;103339.00;;;;6126922;23;20183;-72
2023/12/17 07:10:12;;;;;;;0.83;0.83;;;8.90;99.90;11.70;103371.00;;;;6126163;23;20488;-72
2023/12/17 07:13:01;;;;;;;3.23;1.63;;;9.10;99.90;11.40;103361.00;;;;6126956;23;20164;-72
2023/12/17 07:15:55;;;;;;;3.93;2.23;;;9.10;99.90;11.40;103363.00;;;;6126316;23;20159;-72
2023/12/17 07:18:50;;;;;;;1.83;1.77;;;9.20;99.90;10.60;103375.00;;;;6127173;23;20156;-72
2023/12/17 07:21:59;;;;;;;2.07;1.90;;;9.00;99.90;11.70;103368.00;;;;6100889;23;20678;-72
2023/12/17 07:24:51;;;;;;;2.33;1.43;;;9.10;99.90;11.70;103362.00;;;;6125723;23;20191;-72
2023/12/17 07:27:35;;;;;;;0.30;0.30;;;9.40;99.90;11.80;103364.00;;;;6129324;23;20158;-72
2023/12/17 07:30:25;;;;;;;0.67;0.67;;;9.30;99.90;12.30;103364.00;;;;6126055;23;20564;-72
2023/12/17 07:33:20;;;;;;;4.03;2.60;;;9.60;99.90;11.70;103368.00;;;;6128463;23;20187;-72
2023/12/17 07:36:12;;;;;;;2.37;2.27;;;9.60;99.90;12.20;103370.00;;;;6130957;23;20170;-72
2023/12/17 07:39:12;;;;;;;3.07;2.00;;;9.50;99.90;11.50;103371.00;;;;6106181;23;20162;-72
2023/12/17 07:42:12;;;;;;;1.07;0.67;;;9.50;99.90;11.20;103365.00;;;;6152254;23;20297;-72
2023/12/17 07:45:04;;;;;;;2.07;1.97;;;9.20;99.90;11.30;103367.00;;;;6126851;23;20157;-72
2023/12/17 07:47:50;;;;;;;4.37;3.60;;;9.10;99.90;11.60;103360.00;;;;6129495;23;20161;-73
2023/12/17 07:50:57;;;;;;;10.80;3.87;;;9.10;99.90;10.40;103373.00;;;;6126282;23;20229;-72
2023/12/17 07:53:57;;;;;;;6.70;6.03;;;8.90;99.90;10.30;103360.00;;;;6150437;23;20174;-72
2023/12/17 07:57:04;;;;;;;0.70;0.70;;;8.60;99.90;10.90;103373.00;;;;6100835;23;20170;-72
2023/12/17 07:59:50;;;;;;;6.93;6.53;;;8.70;99.90;10.60;103376.00;;;;6125394;23;20170;-72
2023/12/17 08:02:45;;;;;;;5.13;3.60;;;8.70;99.90;11.00;103344.00;;;;6126320;23;20172;-72
2023/12/17 08:05:43;;;;;;;4.47;2.70;;;8.80;99.90;10.30;103381.00;;;;6126165;23;20149;-72
2023/12/17 08:08:52;;;;;;;1.07;1.07;;;8.70;99.90;11.60;103364.00;;;;6151972;23;20160;-72
2023/12/17 08:11:53;;;;;;;1.73;1.63;;;9.00;99.90;11.30;103374.00;;;;6150371;23;20252;-73
2023/12/17 08:14:49;;;;;;;0.70;0.70;;;8.90;99.90;11.00;103385.00;;;;6101099;23;20296;-72
2023/12/17 08:17:41;;;;;;;0.40;0.40;;;8.90;99.90;11.00;103337.00;;;;6126082;23;20146;-72
2023/12/17 08:20:33;;;;;;;0.80;0.80;;;8.70;99.90;10.60;103383.00;;;;6081619;23;20476;-72
2023/12/17 08:23:59;;;;;;;1.57;1.47;;;8.70;99.90;10.20;103383.00;;;;6128748;23;20288;-72
2023/12/17 08:27:07;;;;;;;0.63;0.63;;;8.40;99.90;10.90;103373.00;;;;6152737;23;20164;-72
2023/12/17 08:30:17;;;;;;;1.57;1.47;;;8.60;99.90;11.50;103388.00;;;;6104540;23;20284;-72
2023/12/17 08:33:20;;;;;;;5.20;1.93;;;8.90;99.90;10.90;103366.00;;;;6107561;23;20698;-72
2023/12/17 08:36:36;;;;;;;12.97;4.93;;;8.90;99.90;11.00;103390.00;;;;6126942;23;20617;-72
2023/12/17 08:39:43;;;;;;;5.50;3.47;;;8.90;99.90;10.10;103383.00;;;;6104713;23;20163;-71
2023/12/17 08:42:52;;;;;;;1.50;1.40;;;8.70;99.90;10.10;103387.00;;;;6153138;23;20180;-72
2023/12/17 08:46:04;;;;;;;0.77;0.77;;;8.80;99.90;10.50;103378.00;;;;6094082;23;20296;-71
2023/12/17 08:49:13;;;;;;;10.37;1.40;;;8.60;99.90;11.40;103393.00;;;;6131189;23;20188;-71
2023/12/17 08:52:29;;;;;;;0.20;0.20;;;8.80;99.90;12.20;103386.00;;;;5898501;23;20640;-71
2023/12/17 08:55:11;;;;;;;0.30;0.30;;;9.10;99.90;11.40;103384.00;;;;6127732;23;20534;-71
2023/12/17 08:58:31;;;;;;;0.23;0.23;;;9.10;99.90;10.80;103376.00;;;;6152048;23;20470;-71
2023/12/17 09:01:57;;;;;;;1.30;1.00;;;9.00;99.90;11.30;103341.00;;;;6126944;23;20168;-71
2023/12/17 09:05:04;;;;;;;1.47;1.37;;;9.00;99.90;10.10;103365.00;;;;6120422;23;20193;-71
2023/12/17 09:08:15;;;;;;;2.83;2.67;;;8.70;99.90;10.70;103352.00;;;;6101043;23;20222;-71
2023/12/17 09:11:22;;;;;;;3.80;3.50;;;8.60;99.90;10.70;103363.00;;;;6101365;23;20174;-71
2023/12/17 09:14:28;;;;;;;0.80;0.80;;;8.50;99.90;10.70;103364.00;;;;6128720;23;20167;-71
2023/12/17 09:17:51;;;;;;;3.20;2.47;;;8.50;99.90;10.50;103362.00;;;;6125605;23;20158;-71
2023/12/17 09:21:04;;;;;;;1.07;1.07;;;8.50;99.90;10.50;103374.00;;;;6104257;23;20492;-72
2023/12/17 09:24:32;;;;;;;0.37;0.37;;;8.70;99.90;11.20;103375.00;;;;6126091;23;20225;-71
2023/12/17 09:27:29;;;;;;;2.97;2.70;;;8.60;99.90;10.40;103331.00;;;;6085936;23;20172;-72
2023/12/17 09:30:16;;;;;;;0.70;0.70;;;8.60;99.90;10.30;103376.00;;;;6080049;23;20523;-71
2023/12/17 09:32:53;;;;;;;6.20;2.33;;;8.50;99.90;10.40;103388.00;;;;6125368;23;20176;-71
2023/12/17 09:35:21;;;;;;;2.43;2.07;;;8.60;99.90;10.00;103376.00;;;;6100661;23;20156;-71
2023/12/17 09:38:16;;;;;;;3.50;2.03;;;8.30;99.90;10.40;103368.00;;;;6151676;23;20223;-71
2023/12/17 09:41:23;;;;;;;1.20;1.17;;;8.40;99.90;10.90;103369.00;;;;6100846;23;20598;-71
2023/12/17 09:44:07;;;;;;;1.60;1.43;;;8.60;99.90;10.90;103379.00;;;;6126077;23;20185;-71
2023/12/17 09:46:50;;;;;;;2.43;2.27;;;8.80;99.90;10.40;103376.00;;;;6125881;23;20147;-70
2023/12/17 09:49:42;;;;;;;1.43;1.20;;;8.70;99.90;10.70;103385.00;;;;6151755;23;20158;-70
2023/12/17 09:52:32;;;;;;;1.00;0.93;;;8.80;99.90;10.40;103376.00;;;;6125437;23;20162;-69
2023/12/17 09:55:12;;;;;;;0.67;0.67;;;8.50;99.90;10.80;103391.00;;;;6151405;23;20204;-75
2023/12/17 09:58:06;;;;;;;2.03;0.87;;;8.70;99.90;11.20;103402.00;;;;6126246;23;20151;-71
2023/12/17 10:00:35;;;;;;;0.40;0.40;;;8.90;99.90;10.10;103384.00;;;;6103663;23;20176;-71
2023/12/17 10:04:00;;;;;;;0.60;0.60;;;8.70;99.90;11.70;103411.00;;;;6124205;23;20191;-70
2023/12/17 10:07:08;;;;;;;3.83;2.50;;;9.10;99.90;10.90;103379.00;;;;6127912;23;20146;-76
2023/12/17 10:10:03;;;;;;;1.00;0.50;;;9.20;99.90;11.20;103397.00;;;;6150562;23;20169;-69
2023/12/17 10:12:29;;;;;;;2.07;1.27;;;9.00;99.90;11.90;103418.00;;;;6101285;23;20488;-69
2023/12/17 10:15:35;;;;;;;1.97;1.10;;;9.30;99.90;11.40;103382.00;;;;6125293;23;20167;-69
2023/12/17 10:18:49;;;;;;;0.40;0.40;;;9.60;99.90;11.30;103425.00;;;;6151066;23;20159;-69
2023/12/17 10:34:12;;;;;;;1.67;1.57;;;9.50;99.90;13.40;103394.00;;;;5070113;28;20562;-70
2023/12/17 10:37:24;;;;;;;0.73;0.50;;;10.20;99.90;12.70;103413.00;;;;5047921;28;20194;-72
2023/12/17 10:40:32;;;;;;;0.20;0.20;;;9.90;99.90;13.50;103442.00;;;;5048731;28;20203;-68
2023/12/17 10:43:42;;;;;;;0.10;0.10;;;10.20;99.90;14.50;103456.00;;;;5029776;28;20281;-69
2023/12/17 10:46:21;;;;;;;2.77;1.70;;;10.90;99.90;13.20;103443.00;;;;5044841;28;20249;-69
2023/12/17 10:49:28;;;;;;;1.10;1.10;;;11.00;99.90;13.50;103439.00;;;;5047259;28;20546;-69
2023/12/17 10:52:00;;;;;;;0.32;0.32;;;10.80;99.90;13.90;103398.00;;;;5044759;28;20851;-70
2023/12/17 10:54:31;;;;;;;0.20;0.20;;;11.00;99.90;14.60;103414.00;;;;5048841;28;20712;-65
2023/12/17 10:57:09;;;;;;;2.20;2.07;;;11.40;99.90;13.40;103464.00;;;;5049575;28;20645;-74
2023/12/17 10:59:39;;;;;;;0.10;0.10;;;11.00;99.90;14.50;103446.00;;;;5047275;28;20320;-68
2023/12/17 11:02:11;;;;;;;0.77;0.50;;;11.20;99.90;14.20;103447.00;;;;5031699;28;20201;-65
2023/12/17 11:04:45;;;;;;;0.20;0.20;;;11.30;99.90;14.40;103399.00;;;;5032103;28;20194;-67
2023/12/17 11:07:18;;;;;;;0.30;0.30;;;11.30;99.90;15.20;103404.00;;;;5041380;28;20175;-68
2023/12/17 11:09:47;;;;;;;3.00;0.77;;;11.80;99.90;15.60;103464.00;;;;5047573;28;20185;-68
2023/12/17 11:12:18;;;;;;;2.13;1.47;;;12.20;99.90;15.50;103456.00;;;;5029737;28;20203;-69
2023/12/17 11:14:50;;;;;;;0.17;0.17;;;12.30;99.90;13.90;103451.00;;;;5046045;28;20179;-69
2023/12/17 11:17:22;;;;;;;0.17;0.17;;;11.60;99.90;15.30;103443.00;;;;5062899;28;20550;-68
2023/12/17 11:20:02;;;;;;;0.63;0.63;;;11.90;99.90;15.70;103462.00;;;;5048176;28;20190;-69
2023/12/17 11:23:01;;;;;;;1.60;1.47;;;12.30;99.90;12.90;103448.00;;;;5048209;28;20655;-68
2023/12/17 11:25:32;;;;;;;0.10;0.10;;;11.40;99.90;13.70;103403.00;;;;5049733;28;20270;-68
2023/12/17 11:28:02;;;;;;;0.10;0.10;;;11.10;99.90;14.10;103398.00;;;;5031322;28;20189;-69
2023/12/17 11:30:38;;;;;;;0.90;0.90;;;11.20;99.90;14.20;103398.00;;;;5027985;28;20208;-69
2023/12/17 11:33:04;;;;;;;0.20;0.20;;;11.40;99.90;14.70;103397.00;;;;5061839;28;20208;-69
2023/12/17 11:35:37;;;;;;;0.73;0.73;;;11.40;99.90;14.70;103371.00;;;;5044138;28;20280;-69
2023/12/17 11:38:13;;;;;;;0.93;0.70;;;11.70;99.90;14.30;103432.00;;;;5061593;28;20184;-69
2023/12/17 11:40:42;;;;;;;0.87;0.67;;;11.80;99.90;14.90;103418.00;;;;5047233;28;20193;-69
2023/12/17 11:43:17;;;;;;;0.20;0.20;;;11.80;99.90;15.90;103430.00;;;;5044297;28;20192;-68
2023/12/17 11:45:49;;;;;;;2.47;1.90;;;12.40;99.90;12.90;103401.00;;;;5025034;28;20212;-72
2023/12/17 11:48:21;;;;;;;1.07;0.97;;;11.50;99.90;13.70;103408.00;;;;5035552;28;20195;-69
2023/12/17 11:50:57;;;;;;;0.77;0.77;;;11.30;99.90;13.10;103331.00;;;;5034512;28;20185;-68
2023/12/17 11:53:31;;;;;;;0.10;0.10;;;10.80;99.90;14.80;103386.00;;;;5032217;28;20671;-69
2023/12/17 11:56:03;;;;;;;1.63;1.23;;;11.40;99.90;12.90;103412.00;;;;5018447;28;20192;-68
2023/12/17 11:58:48;;;;;;;0.63;0.63;;;11.20;99.90;14.20;103373.00;;;;5034401;28;20192;-69
2023/12/17 12:01:55;;;;;;;0.60;0.60;;;11.20;99.90;15.00;103398.00;;;;5034492;28;20308;-68
2023/12/17 12:04:57;;;;;;;0.20;0.20;;;11.50;99.90;13.80;103404.00;;;;5007583;28;20196;-68
2023/12/17 12:08:12;;;;;;;1.87;1.03;;;11.60;99.90;13.30;103372.00;;;;5031149;28;20194;-68
2023/12/17 12:11:19;;;;;;;0.37;0.37;;;11.00;99.90;13.20;103337.00;;;;5032420;28;20226;-74
2023/12/17 12:14:29;;;;;;;1.57;0.67;;;10.90;99.90;13.80;103370.00;;;;5033648;28;20633;-69
2023/12/17 12:17:44;;;;;;;7.03;1.60;;;11.10;99.90;15.40;103383.00;;;;5034916;28;20651;-70
2023/12/17 12:20:33;;;;;;;0.10;0.10;;;11.70;99.90;15.40;103393.00;;;;4996860;28;20200;-70
2023/12/17 12:26:00;;;;;;;0.10;0.10;;;12.30;99.90;15.50;103421.00;;;;5034390;28;20193;-70
2023/12/17 12:29:09;;;;;;;0.20;0.20;;;12.30;99.90;14.30;103424.00;;;;5032498;28;20231;-69
2023/12/17 12:32:05;;;;;;;2.60;2.13;;;12.00;99.90;13.70;103391.00;;;;5023142;28;20693;-69
2023/12/17 12:34:56;;;;;;;0.97;0.93;;;11.40;99.90;14.40;103358.00;;;;5033560;28;20235;-69
2023/12/17 12:37:56;;;;;;;7.10;3.30;;;11.40;99.90;12.90;103354.00;;;;5014206;28;20199;-69
2023/12/17 12:40:53;;;;;;;0.20;0.20;;;10.90;99.90;14.50;103360.00;;;;5022599;28;20224;-69
2023/12/17 12:43:35;;;;;;;6.40;2.43;;;11.30;99.90;13.30;103361.00;;;;5020602;28;20290;-69
2023/12/17 12:46:16;;;;;;;1.03;0.93;;;11.20;99.90;13.60;103342.00;;;;5032355;28;20186;-69
2023/12/17 12:49:22;;;;;;;0.77;0.77;;;11.00;99.90;12.70;103316.00;;;;5032926;28;20637;-69
2023/12/17 12:52:34;;;;;;;1.73;1.37;;;10.60;99.90;12.30;103305.00;;;;5033847;28;20244;-69
2023/12/17 12:55:43;;;;;;;1.57;1.47;;;10.50;99.90;12.20;103296.00;;;;5029661;28;20604;-69
2023/12/17 12:58:31;;;;;;;0.70;0.70;;;10.40;99.90;12.50;103294.00;;;;5032537;28;20207;-72
2023/12/17 13:01:40;;;;;;;0.10;0.10;;;10.50;99.90;13.60;103278.00;;;;5013434;28;20199;-71
2023/12/17 13:04:18;;;;;;;0.53;0.37;;;10.50;99.90;12.90;103236.00;;;;5025668;28;20622;-71
2023/12/17 13:06:52;;;;;;;0.10;0.10;;;10.60;99.90;13.20;103279.00;;;;5033389;28;20277;-71
2023/12/17 13:09:18;;;;;;;3.10;0.50;;;10.70;99.90;14.50;103248.00;;;;5033669;28;20194;-71
2023/12/17 13:11:53;;;;;;;2.60;1.30;;;11.20;99.90;13.90;103286.00;;;;5032957;28;20214;-71
2023/12/17 13:14:29;;;;;;;0.30;0.30;;;11.20;99.90;13.50;103288.00;;;;5026513;28;20191;-71
2023/12/17 13:16:58;;;;;;;0.30;0.30;;;11.10;99.90;14.00;103285.00;;;;5034002;28;20186;-71
2023/12/17 13:19:33;;;;;;;5.03;2.63;;;11.10;99.90;13.60;103299.00;;;;5033445;28;20193;-69
2023/12/17 13:22:05;;;;;;;0.20;0.20;;;11.10;99.90;12.70;103272.00;;;;5009063;28;20191;-70
2023/12/17 13:24:31;;;;;;;6.10;2.33;;;10.60;99.90;13.10;103264.00;;;;5019224;28;20196;-70
2023/12/17 13:26:57;;;;;;;2.10;0.70;;;10.60;99.90;13.10;103267.00;;;;5033483;28;20189;-70
2023/12/17 13:29:23;;;;;;;0.30;0.30;;;10.70;99.90;13.80;103265.00;;;;5033755;28;20210;-70
2023/12/17 13:31:52;;;;;;;0.10;0.10;;;10.80;99.90;14.70;103240.00;;;;5031919;28;20224;-70
2023/12/17 13:34:23;;;;;;;0.90;0.90;;;11.30;99.90;13.60;103304.00;;;;5048530;28;20187;-70
2023/12/17 13:36:52;;;;;;;1.40;1.27;;;11.30;99.90;13.70;103234.00;;;;5032320;28;20190;-70
2023/12/17 13:39:19;;;;;;;3.40;2.47;;;11.10;99.90;13.10;103244.00;;;;5033320;28;20188;-70
2023/12/17 13:41:56;;;;;;;1.90;1.70;;;10.70;99.90;13.70;103250.00;;;;5032734;28;20693;-70
2023/12/17 13:44:28;;;;;;;1.60;0.93;;;10.80;99.90;13.50;103252.00;;;;5033177;28;20190;-70
2023/12/17 13:47:00;;;;;;;0.17;0.17;;;10.70;99.90;13.00;103234.00;;;;5033343;28;20215;-70
2023/12/17 13:49:38;;;;;;;0.30;0.30;;;10.50;99.90;13.90;103248.00;;;;5032868;28;20680;-70
2023/12/17 13:52:11;;;;;;;1.50;1.40;;;10.80;99.90;13.90;103252.00;;;;5021822;28;20283;-70
2023/12/17 13:54:45;;;;;;;1.53;1.43;;;11.00;99.90;13.10;103253.00;;;;5032034;28;20211;-70
2023/12/17 13:57:19;;;;;;;2.00;0.73;;;10.80;99.90;13.70;103234.00;;;;5032067;28;20183;-70
2023/12/17 13:59:51;;;;;;;0.10;0.10;;;10.90;99.90;14.20;103241.00;;;;5033268;28;20175;-69
2023/12/17 14:02:17;;;;;;;0.83;0.63;;;11.00;99.90;13.90;103245.00;;;;5031818;28;20208;-70
2023/12/17 14:04:46;;;;;;;0.10;0.10;;;11.10;99.90;13.90;103232.00;;;;5032213;28;20180;-70
2023/12/17 14:07:13;;;;;;;0.10;0.10;;;10.90;99.90;13.50;103218.00;;;;5033036;28;20179;-70
2023/12/17 14:09:45;;;;;;;2.23;0.77;;;10.80;99.90;14.10;103218.00;;;;5031671;28;20203;-70
2023/12/17 14:12:16;;;;;;;2.43;0.87;;;10.80;99.90;13.00;103209.00;;;;5031619;28;20320;-70
2023/12/17 14:14:43;;;;;;;0.60;0.60;;;10.70;99.90;13.40;103221.00;;;;5031737;28;20239;-70
2023/12/17 14:17:17;;;;;;;0.33;0.33;;;10.70;99.90;13.90;103169.00;;;;5015458;28;20318;-70
2023/12/17 14:19:48;;;;;;;0.10;0.10;;;10.80;99.90;14.10;103214.00;;;;5031266;28;20178;-70
2023/12/17 14:22:20;;;;;;;1.13;1.03;;;10.80;99.90;14.00;103221.00;;;;5033312;28;20199;-69
2023/12/17 14:24:55;;;;;;;0.10;0.10;;;10.90;99.90;14.10;103220.00;;;;5031562;28;20266;-70
2023/12/17 14:27:27;;;;;;;0.43;0.43;;;11.00;99.90;13.90;103221.00;;;;5028692;28;20192;-69
2023/12/17 14:29:59;;;;;;;0.10;0.10;;;11.00;99.90;13.30;103217.00;;;;5031002;28;20665;-69
2023/12/17 14:32:35;;;;;;;0.40;0.40;;;10.70;99.90;13.50;103221.00;;;;5032011;28;20218;-70
2023/12/17 14:35:13;;;;;;;0.53;0.53;;;10.70;99.90;13.30;103219.00;;;;5030981;28;20202;-71
2023/12/17 14:37:49;;;;;;;0.80;0.80;;;10.70;99.90;13.90;103210.00;;;;5031487;28;20177;-71
2023/12/17 14:40:21;;;;;;;0.33;0.33;;;10.70;99.90;13.90;103205.00;;;;5015985;28;20201;-71
2023/12/17 14:42:49;;;;;;;0.20;0.20;;;10.80;99.90;14.30;103210.00;;;;5028064;28;20180;-71
2023/12/17 14:45:23;;;;;;;0.30;0.30;;;10.80;99.90;13.00;103211.00;;;;5015258;28;20637;-71
2023/12/17 14:47:55;;;;;;;0.20;0.20;;;10.60;99.90;13.30;103194.00;;;;5047707;28;20221;-71
2023/12/17 14:50:32;;;;;;;0.47;0.47;;;10.40;99.90;13.50;103195.00;;;;5031517;28;20191;-71
2023/12/17 14:53:01;;;;;;;0.93;0.93;;;10.60;99.90;12.10;103179.00;;;;5020741;28;20202;-71
2023/12/17 14:55:32;;;;;;;0.33;0.33;;;10.20;99.90;12.70;103179.00;;;;5031338;28;20194;-71
2023/12/17 14:58:07;;;;;;;0.10;0.10;;;10.10;99.90;12.60;103168.00;;;;5032557;28;20191;-71
2023/12/17 15:00:44;;;;;;;1.13;0.93;;;10.00;99.90;12.30;103160.00;;;;5030343;28;20194;-71
2023/12/17 15:03:23;;;;;;;0.77;0.77;;;10.00;99.90;12.10;103172.00;;;;5031628;28;20196;-71
2023/12/17 15:05:58;;;;;;;0.33;0.33;;;9.80;99.90;12.00;103159.00;;;;5027455;28;20186;-71
2023/12/17 15:08:37;;;;;;;0.40;0.40;;;9.70;99.90;12.80;103165.00;;;;5030732;28;20512;-71
2023/12/17 15:11:21;;;;;;;1.80;1.70;;;9.80;99.90;11.40;103144.00;;;;5029955;28;20190;-71
2023/12/17 15:13:56;;;;;;;2.23;2.03;;;9.60;99.90;11.40;103141.00;;;;5025661;28;20194;-71
2023/12/17 15:16:31;;;;;;;0.47;0.47;;;9.50;99.90;11.40;103136.00;;;;5035131;28;20674;-71
2023/12/17 15:19:07;;;;;;;0.70;0.70;;;9.40;99.90;11.60;103145.00;;;;5028484;28;20317;-71
2023/12/17 15:21:44;;;;;;;0.60;0.60;;;9.40;99.90;11.80;103131.00;;;;5014810;28;20192;-71
2023/12/17 15:24:41;;;;;;;2.43;1.37;;;9.50;99.90;10.60;103139.00;;;;5053898;28;20634;-71
2023/12/17 15:27:18;;;;;;;1.73;1.10;;;9.40;99.90;11.70;103132.00;;;;5035452;28;20217;-71
2023/12/17 15:29:52;;;;;;;0.33;0.33;;;9.40;99.90;11.50;103120.00;;;;5034016;28;20216;-71
2023/12/17 15:32:29;;;;;;;0.60;0.60;;;9.30;99.90;11.60;103083.00;;;;5033877;28;20214;-71
2023/12/17 15:35:07;;;;;;;0.67;0.67;;;9.30;99.90;11.90;103122.00;;;;5018140;28;20213;-71
2023/12/17 15:37:50;;;;;;;2.00;1.90;;;9.40;99.90;11.30;103120.00;;;;5030620;28;20185;-71
2023/12/17 15:40:32;;;;;;;0.20;0.20;;;9.20;99.90;11.20;103116.00;;;;5030486;28;20326;-71
2023/12/17 15:43:27;;;;;;;0.40;0.40;;;9.00;99.90;11.50;103115.00;;;;5036471;28;20231;-71
2023/12/17 15:46:12;;;;;;;1.83;1.20;;;9.00;99.90;10.90;103107.00;;;;5009002;28;20538;-71
2023/12/17 15:48:50;;;;;;;4.80;2.30;;;8.90;99.90;11.20;103122.00;;;;5034174;28;20183;-71
2023/12/17 15:51:33;;;;;;;4.63;4.23;;;9.00;99.90;11.20;103115.00;;;;5018494;28;20200;-71
2023/12/17 15:54:16;;;;;;;0.67;0.67;;;9.00;99.90;11.50;103118.00;;;;5026874;28;20276;-71
2023/12/17 15:57:00;;;;;;;1.70;0.43;;;9.00;99.90;11.20;103120.00;;;;5033911;28;20273;-71
2023/12/17 15:59:35;;;;;;;0.40;0.40;;;8.90;99.90;11.50;103125.00;;;;5033354;28;20598;-71
2023/12/17 16:02:09;;;;;;;0.40;0.40;;;8.90;99.90;11.60;103137.00;;;;5034539;28;20232;-71
2023/12/17 16:04:48;;;;;;;0.13;0.13;;;9.00;99.90;11.20;103131.00;;;;5033582;28;20667;-71
2023/12/17 16:07:33;;;;;;;0.50;0.50;;;8.90;99.90;12.10;103141.00;;;;5017678;28;20218;-71
2023/12/17 16:10:28;;;;;;;0.40;0.40;;;9.00;99.90;12.10;103132.00;;;;5031129;28;20184;-71
2023/12/17 16:13:03;;;;;;;2.00;1.00;;;9.20;99.90;12.10;103160.00;;;;5033274;28;20204;-71
2023/12/17 16:15:40;;;;;;;0.53;0.30;;;9.40;99.90;12.30;103156.00;;;;5027816;28;20216;-69
2023/12/17 16:18:11;;;;;;;1.53;1.30;;;9.30;99.90;11.40;103147.00;;;;5017135;28;20968;-71
2023/12/17 16:20:38;;;;;;;0.77;0.77;;;9.00;99.90;10.90;103130.00;;;;5061528;28;20183;-70
2023/12/17 16:23:11;;;;;;;0.97;0.97;;;8.90;99.90;11.40;103132.00;;;;5033971;28;20233;-69
2023/12/17 16:25:37;;;;;;;0.60;0.60;;;8.80;99.90;10.80;103127.00;;;;5033803;28;20751;-70
2023/12/17 16:28:11;;;;;;;3.53;0.77;;;8.70;99.90;11.30;103139.00;;;;5035006;28;20272;-70
2023/12/17 16:30:45;;;;;;;0.20;0.20;;;8.70;99.90;11.70;103095.00;;;;5026973;28;20183;-70
2023/12/17 16:33:16;;;;;;;0.53;0.53;;;8.80;99.90;11.40;103148.00;;;;5034287;28;20227;-69
2023/12/17 16:35:52;;;;;;;0.20;0.20;;;8.80;99.90;12.60;103152.00;;;;5032232;28;20193;-70
2023/12/17 16:38:23;;;;;;;0.20;0.20;;;9.00;99.90;12.60;103141.00;;;;5015136;28;20204;-71
2023/12/17 16:40:52;;;;;;;0.50;0.50;;;9.20;99.90;11.90;103152.00;;;;5017237;28;20196;-70
2023/12/17 16:43:20;;;;;;;0.93;0.90;;;9.10;99.90;11.80;103143.00;;;;5016936;28;20203;-70
2023/12/17 16:45:54;;;;;;;2.50;2.40;;;8.90;99.90;11.10;103134.00;;;;5016109;28;20199;-70
2023/12/17 16:48:23;;;;;;;2.03;1.93;;;8.80;99.90;11.70;103139.00;;;;5034700;28;20190;-70
2023/12/17 16:51:10;;;;;;;0.20;0.20;;;8.70;99.90;11.90;103140.00;;;;5016666;28;20207;-70
2023/12/17 16:53:43;;;;;;;0.20;0.20;;;8.80;99.90;11.40;103124.00;;;;5032574;28;20245;-70
2023/12/17 16:56:34;;;;;;;0.63;0.63;;;8.70;99.90;10.90;103112.00;;;;5030026;28;20195;-69
2023/12/17 16:58:59;;;;;;;0.53;0.47;;;8.50;99.90;10.80;103117.00;;;;5013381;28;20200;-69
2023/12/17 17:01:29;;;;;;;5.93;1.80;;;8.30;99.90;10.40;103111.00;;;;5046917;28;20196;-70
2023/12/17 17:03:55;;;;;;;1.83;1.73;;;8.20;99.90;10.60;103109.00;;;;5013647;28;20184;-69
2023/12/17 17:07:07;;;;;;;3.00;1.10;;;8.10;99.90;10.30;103110.00;;;;5029933;28;20540;-76
2023/12/17 17:09:33;;;;;;;0.30;0.30;;;8.10;99.90;10.30;103110.00;;;;5029639;28;20200;-70
2023/12/17 17:12:05;;;;;;;1.53;1.37;;;8.00;99.90;9.60;103095.00;;;;5033155;28;20197;-69
2023/12/17 17:14:32;;;;;;;1.00;1.00;;;7.90;99.90;9.90;103094.00;;;;5033003;28;20195;-70
2023/12/17 17:16:58;;;;;;;1.03;0.93;;;7.80;99.90;10.10;103107.00;;;;5033015;28;20187;-69
2023/12/17 17:19:24;;;;;;;0.20;0.20;;;7.90;99.90;10.20;103112.00;;;;5015738;28;20219;-70
2023/12/17 17:22:20;;;;;;;0.20;0.20;;;7.90;99.90;11.10;103130.00;;;;5033161;28;20207;-69
2023/12/17 17:24:55;;;;;;;0.50;0.50;;;8.10;99.90;10.90;103137.00;;;;5032714;28;20543;-69
2023/12/17 17:27:43;;;;;;;0.20;0.20;;;8.20;99.90;11.50;103135.00;;;;5032630;28;20211;-72
2023/12/17 17:30:47;;;;;;;0.53;0.53;;;8.30;99.90;10.50;103134.00;;;;5024482;28;20204;-71
2023/12/17 17:33:25;;;;;;;0.50;0.50;;;8.20;99.90;10.90;103136.00;;;;5027588;28;20686;-71
2023/12/17 17:36:18;;;;;;;1.07;0.93;;;8.10;99.90;10.70;103108.00;;;;5029374;28;20215;-71
2023/12/17 17:38:44;;;;;;;1.10;1.10;;;8.10;99.90;10.20;103096.00;;;;5026215;28;20236;-71
2023/12/17 17:41:34;;;;;;;2.53;1.93;;;7.90;99.90;10.10;103099.00;;;;5031922;28;20577;-71
2023/12/17 17:44:17;;;;;;;0.20;0.20;;;7.70;99.90;10.30;103090.00;;;;5012475;28;20205;-71
2023/12/17 17:46:59;;;;;;;0.50;0.50;;;7.70;99.90;9.80;103086.00;;;;5026503;28;20191;-70
2023/12/17 17:49:33;;;;;;;1.87;1.70;;;7.60;99.90;9.60;103096.00;;;;5032724;28;20249;-72
2023/12/17 17:52:10;;;;;;;2.87;2.53;;;7.50;99.90;9.00;103045.00;;;;5031362;28;20232;-73
2023/12/17 17:54:45;;;;;;;0.60;0.60;;;7.40;99.90;9.30;103019.00;;;;5031679;28;20191;-73
2023/12/17 17:57:54;;;;;;;1.90;1.63;;;7.30;99.90;9.50;103078.00;;;;5031314;28;20186;-73
2023/12/17 18:01:21;;;;;;;4.63;3.40;;;7.40;99.90;9.50;103065.00;;;;5028089;28;20191;-71
2023/12/17 18:04:27;;;;;;;1.83;1.57;;;7.40;99.90;8.90;103010.00;;;;5027248;28;20201;-73
2023/12/17 18:07:26;;;;;;;1.13;1.03;;;7.20;99.90;9.00;103055.00;;;;5022611;28;20623;-73
2023/12/17 18:10:54;;;;;;;1.60;1.50;;;7.20;99.90;9.80;103090.00;;;;5031732;28;20194;-73
2023/12/17 18:14:00;;;;;;;1.43;1.33;;;7.30;99.90;10.10;103064.00;;;;5025156;28;20202;-73
2023/12/17 18:17:12;;;;;;;1.20;1.20;;;7.60;99.90;9.60;103089.00;;;;5036286;28;20191;-73
2023/12/17 18:20:16;;;;;;;1.73;0.70;;;7.40;99.90;9.50;103079.00;;;;5029863;28;20190;-73
2023/12/17 18:23:14;;;;;;;2.70;2.23;;;7.30;99.90;8.90;103021.00;;;;5028388;28;20198;-73
2023/12/17 18:26:09;;;;;;;1.10;1.10;;;7.20;99.90;8.90;103056.00;;;;5043881;28;20195;-73
2023/12/17 18:29:24;;;;;;;0.30;0.30;;;7.10;99.90;8.80;103065.00;;;;5028171;28;20193;-73
2023/12/17 18:32:53;;;;;;;0.63;0.63;;;7.10;99.90;9.20;103077.00;;;;5047633;28;20669;-73
2023/12/17 18:35:39;;;;;;;0.30;0.30;;;7.10;99.90;9.30;103068.00;;;;5031448;28;20190;-73
2023/12/17 18:38:46;;;;;;;1.70;1.63;;;7.10;99.90;9.10;103059.00;;;;5026620;28;20244;-73
2023/12/17 18:41:26;;;;;;;2.23;1.90;;;7.10;99.90;9.10;103049.00;;;;5014989;28;20232;-73
2023/12/17 18:43:54;;;;;;;0.23;0.23;;;7.10;99.90;9.60;103059.00;;;;5031608;28;20182;-73
2023/12/17 18:46:52;;;;;;;0.30;0.30;;;7.10;99.90;9.60;103078.00;;;;5031306;28;20187;-73
2023/12/17 18:49:41;;;;;;;1.00;0.93;;;7.00;99.90;8.90;103079.00;;;;5030858;28;20201;-73
2023/12/17 18:52:21;;;;;;;0.30;0.30;;;7.10;99.90;9.90;103070.00;;;;5015138;28;20718;-73
2023/12/17 18:55:09;;;;;;;0.50;0.50;;;7.20;99.90;10.90;103094.00;;;;5032598;28;20197;-71
2023/12/17 18:57:51;;;;;;;2.07;1.87;;;7.60;99.90;9.50;103100.00;;;;5036630;28;20645;-71
2023/12/17 19:00:26;;;;;;;0.70;0.70;;;7.50;99.90;9.80;103099.00;;;;5035032;28;20182;-71
2023/12/17 19:03:08;;;;;;;0.87;0.87;;;7.20;99.90;9.80;103094.00;;;;5035263;28;20190;-71
2023/12/17 19:05:45;;;;;;;1.43;1.33;;;7.20;99.90;9.10;103080.00;;;;5035291;28;20590;-72
2023/12/17 19:08:36;;;;;;;2.47;2.37;;;7.10;99.90;10.00;103072.00;;;;5035427;28;20197;-73
2023/12/17 19:11:13;;;;;;;0.80;0.80;;;7.10;99.90;10.00;103101.00;;;;5017505;28;20191;-73
2023/12/17 19:14:09;;;;;;;1.07;0.73;;;7.30;99.90;8.70;103014.00;;;;5033048;28;20219;-73
2023/12/17 19:16:58;;;;;;;2.37;2.00;;;6.90;99.90;9.10;103073.00;;;;5035187;28;20194;-73
2023/12/17 19:19:36;;;;;;;0.20;0.20;;;6.90;99.90;10.10;103080.00;;;;5027746;28;20207;-73
2023/12/17 19:22:17;;;;;;;0.87;0.87;;;7.10;99.90;10.00;103036.00;;;;5031625;28;20206;-71
2023/12/17 19:24:57;;;;;;;0.20;0.20;;;7.30;99.90;9.50;103038.00;;;;5032165;28;20549;-71
2023/12/17 19:27:57;;;;;;;1.90;1.80;;;7.00;99.90;9.40;103081.00;;;;5051419;28;20194;-73
2023/12/17 19:30:32;;;;;;;0.40;0.40;;;7.00;99.90;10.10;103088.00;;;;5014924;28;20727;-73